createdAt,value
2022-11-01T00:00:12.070Z,10.35
2022-11-01T00:02:58.386Z,10.95
2022-11-01T00:05:46.069Z,10.55
2022-11-01T00:08:31.010Z,10.48
2022-11-01T00:11:18.020Z,10.90
2022-11-01T00:14:03.373Z,10.32
2022-11-01T00:16:49.137Z,11.23
2022-11-01T00:19:34.416Z,10.25
2022-11-01T00:22:19.429Z,10.43
2022-11-01T00:25:04.952Z,10.60
2022-11-01T00:27:49.998Z,10.60
2022-11-01T00:30:39.538Z,10.45
2022-11-01T00:33:25.611Z,10.65
2022-11-01T00:36:11.086Z,11.30
2022-11-01T00:38:56.254Z,10.63
2022-11-01T00:41:41.827Z,11.18
2022-11-01T00:44:27.185Z,10.27
2022-11-01T00:47:12.504Z,11.40
2022-11-01T00:49:57.485Z,10.35
2022-11-01T00:52:42.566Z,10.23
2022-11-01T00:55:27.591Z,10.77
2022-11-01T00:58:13.185Z,10.02
2022-11-01T01:00:58.772Z,9.95
2022-11-01T01:03:44.282Z,9.98
2022-11-01T01:06:29.548Z,9.77
2022-11-01T01:09:15.297Z,10.52
2022-11-01T01:12:00.514Z,9.98
2022-11-01T01:14:45.556Z,10.45
2022-11-01T01:17:33.726Z,9.80
2022-11-01T01:20:20.484Z,9.80
2022-11-01T01:23:05.718Z,10.23
2022-11-01T01:25:51.474Z,9.55
2022-11-01T01:28:41.847Z,9.55
2022-11-01T01:31:30.077Z,9.68
2022-11-01T01:34:15.011Z,9.85
2022-11-01T01:37:00.383Z,9.43
2022-11-01T01:39:46.169Z,9.57
2022-11-01T01:42:38.953Z,9.40
2022-11-01T01:45:24.163Z,9.35
2022-11-01T01:48:19.099Z,9.30
2022-11-01T01:51:08.915Z,9.10
2022-11-01T01:53:55.743Z,8.93
2022-11-01T01:56:41.030Z,9.48
2022-11-01T01:59:26.910Z,8.70
2022-11-01T02:02:13.417Z,8.43
2022-11-01T02:05:03.925Z,8.15
2022-11-01T02:07:49.346Z,8.82
2022-11-01T02:10:34.934Z,8.07
2022-11-01T02:13:20.112Z,8.13
2022-11-01T02:16:17.290Z,8.20
2022-11-01T02:19:35.276Z,7.20
2022-11-01T02:22:33.330Z,7.78
2022-11-01T02:25:21.887Z,7.15
2022-11-01T02:28:35.842Z,7.75
2022-11-01T02:31:49.044Z,7.55
2022-11-01T02:34:50.256Z,7.40
2022-11-01T02:37:43.944Z,6.90
2022-11-01T02:40:46.577Z,7.57
2022-11-01T02:43:59.975Z,7.35
2022-11-01T02:46:47.280Z,6.90
2022-11-01T02:49:38.347Z,7.20
2022-11-01T02:52:25.345Z,7.13
2022-11-01T02:55:20.100Z,7.45
2022-11-01T02:58:24.992Z,7.70
2022-11-01T03:01:15.791Z,7.63
2022-11-01T03:04:02.192Z,7.30
2022-11-01T03:06:56.248Z,7.88
2022-11-01T03:09:42.270Z,6.93
2022-11-01T03:12:32.737Z,6.78
2022-11-01T03:15:27.128Z,7.45
2022-11-01T03:18:21.327Z,6.97
2022-11-01T03:21:11.800Z,7.03
2022-11-01T03:24:11.609Z,6.70
2022-11-01T03:27:26.268Z,6.80
2022-11-01T03:30:14.709Z,6.80
2022-11-01T03:33:00.402Z,7.15
2022-11-01T03:35:50.164Z,6.80
2022-11-01T03:38:39.875Z,7.00
2022-11-01T03:41:26.916Z,6.55
2022-11-01T03:44:13.552Z,6.72
2022-11-01T03:46:59.030Z,7.07
2022-11-01T03:49:44.013Z,6.60
2022-11-01T03:52:29.219Z,7.13
2022-11-01T03:55:15.681Z,6.90
2022-11-01T03:58:01.171Z,7.45
2022-11-01T04:00:47.187Z,8.05
2022-11-01T04:03:32.664Z,7.10
2022-11-01T04:06:17.578Z,7.18
2022-11-01T04:09:02.511Z,7.30
2022-11-01T04:11:47.855Z,7.47
2022-11-01T04:14:32.756Z,7.32
2022-11-01T04:17:18.299Z,7.22
2022-11-01T04:20:04.060Z,7.50
2022-11-01T04:22:49.144Z,7.82
2022-11-01T04:25:34.367Z,6.85
2022-11-01T04:28:19.548Z,7.78
2022-11-01T04:31:05.533Z,7.38
2022-11-01T04:33:50.458Z,6.88
2022-11-01T04:36:37.303Z,6.68
2022-11-01T04:39:22.611Z,6.60
2022-11-01T04:42:07.652Z,6.75
2022-11-01T04:44:52.857Z,6.70
2022-11-01T04:47:37.693Z,6.45
2022-11-01T04:50:22.557Z,6.15
2022-11-01T04:53:07.932Z,6.60
2022-11-01T04:55:53.148Z,6.18
2022-11-01T04:58:43.064Z,5.50
2022-11-01T05:01:31.355Z,5.30
2022-11-01T05:04:16.553Z,5.53
2022-11-01T05:07:01.972Z,5.78
2022-11-01T05:09:46.975Z,5.60
2022-11-01T05:12:32.502Z,5.78
2022-11-01T05:15:18.008Z,4.60
2022-11-01T05:18:04.124Z,5.43
2022-11-01T05:20:49.143Z,5.10
2022-11-01T05:23:33.996Z,5.35
2022-11-01T05:26:18.826Z,5.43
2022-11-01T05:29:08.714Z,4.78
2022-11-01T05:31:54.504Z,5.40
2022-11-01T05:34:39.714Z,4.95
2022-11-01T05:37:28.124Z,5.50
2022-11-01T05:40:13.575Z,5.32
2022-11-01T05:42:58.994Z,5.30
2022-11-01T05:45:44.237Z,4.88
2022-11-01T05:48:29.646Z,5.25
2022-11-01T05:51:14.695Z,4.88
2022-11-01T05:53:59.676Z,5.43
2022-11-01T05:56:44.746Z,4.80
2022-11-01T05:59:29.615Z,4.82
2022-11-01T06:02:15.148Z,4.32
2022-11-01T06:05:03.068Z,4.88
2022-11-01T06:07:48.505Z,5.15
2022-11-01T06:10:34.432Z,4.82
2022-11-01T06:13:19.925Z,4.40
2022-11-01T06:16:06.179Z,4.30
2022-11-01T06:18:51.219Z,4.60
2022-11-01T06:21:36.620Z,4.90
2022-11-01T06:24:21.628Z,4.47
2022-11-01T06:27:11.458Z,4.40
2022-11-01T06:29:57.607Z,4.53
2022-11-01T06:32:42.918Z,4.45
2022-11-01T06:35:28.369Z,4.80
2022-11-01T06:38:13.292Z,4.60
2022-11-01T06:40:58.402Z,4.40
2022-11-01T06:43:43.754Z,4.82
2022-11-01T06:46:29.035Z,4.50
2022-11-01T06:49:18.869Z,4.65
2022-11-01T06:52:05.242Z,4.57
2022-11-01T06:54:50.593Z,4.93
2022-11-01T06:57:36.087Z,4.50
2022-11-01T07:00:21.312Z,4.97
2022-11-01T07:03:10.120Z,4.68
2022-11-01T07:05:55.679Z,5.15
2022-11-01T07:08:40.504Z,5.03
2022-11-01T07:11:31.216Z,4.93
2022-11-01T07:14:16.940Z,4.97
2022-11-01T07:17:01.845Z,4.55
2022-11-01T07:19:47.463Z,4.80
2022-11-01T07:22:32.768Z,5.07
2022-11-01T07:25:17.689Z,4.93
2022-11-01T07:28:03.366Z,4.95
2022-11-01T07:30:53.345Z,4.30
2022-11-01T07:33:38.730Z,4.55
2022-11-01T07:36:23.622Z,5.13
2022-11-01T07:39:08.449Z,4.78
2022-11-01T07:41:53.567Z,4.45
2022-11-01T07:44:38.607Z,4.20
2022-11-01T07:47:23.456Z,4.40
2022-11-01T07:50:08.724Z,4.15
2022-11-01T07:53:05.197Z,4.45
2022-11-01T07:55:50.966Z,4.38
2022-11-01T07:58:35.880Z,4.20
2022-11-01T08:01:20.871Z,4.00
2022-11-01T08:04:06.210Z,4.32
2022-11-01T08:06:52.330Z,4.22
2022-11-01T08:09:37.569Z,4.05
2022-11-01T08:12:22.614Z,4.28
2022-11-01T08:15:08.097Z,4.00
2022-11-01T08:17:55.807Z,3.90
2022-11-01T08:20:41.146Z,3.80
2022-11-01T08:23:26.381Z,3.28
2022-11-01T08:26:11.819Z,2.58
2022-11-01T08:28:56.648Z,2.80
2022-11-01T08:31:41.905Z,2.20
2022-11-01T08:34:27.370Z,3.05
2022-11-01T08:37:12.657Z,2.55
2022-11-01T08:39:57.594Z,2.47
2022-11-01T08:42:42.379Z,11.50
2022-11-01T08:45:27.875Z,2.55
2022-11-01T08:48:13.665Z,2.22
2022-11-01T08:50:58.632Z,2.00
2022-11-01T08:53:44.099Z,2.00
2022-11-01T08:56:29.137Z,1.90
2022-11-01T08:59:14.099Z,2.35
2022-11-01T09:01:59.569Z,1.60
2022-11-01T09:04:44.809Z,1.80
2022-11-01T09:07:30.177Z,1.40
2022-11-01T09:10:16.504Z,1.42
2022-11-01T09:13:02.463Z,1.67
2022-11-01T09:15:48.325Z,1.50
2022-11-01T09:18:33.871Z,1.20
2022-11-01T09:21:18.984Z,1.58
2022-11-01T09:24:04.496Z,1.25
2022-11-01T09:26:49.736Z,1.20
2022-11-01T09:29:35.248Z,1.55
2022-11-01T09:32:20.519Z,1.52
2022-11-01T09:35:06.291Z,1.38
2022-11-01T09:37:57.605Z,1.67
2022-11-01T09:40:44.375Z,1.58
2022-11-01T09:43:32.731Z,1.80
2022-11-01T09:49:20.897Z,1.58
2022-11-01T09:52:06.484Z,1.60
2022-11-01T09:54:51.744Z,1.92
2022-11-01T09:57:44.126Z,1.67
2022-11-01T10:00:35.204Z,1.65
2022-11-01T10:03:35.933Z,1.73
2022-11-01T10:06:27.714Z,1.70
2022-11-01T10:09:37.960Z,1.75
2022-11-01T10:12:40.867Z,2.05
2022-11-01T10:16:00.157Z,6.47
2022-11-01T10:19:08.273Z,1.80
2022-11-01T10:21:58.624Z,1.67
2022-11-01T10:24:49.828Z,1.58
2022-11-01T10:27:55.324Z,2.00
2022-11-01T10:30:46.796Z,2.22
2022-11-01T10:33:35.162Z,2.33
2022-11-01T10:36:26.819Z,2.55
2022-11-01T10:42:41.147Z,2.17
2022-11-01T10:45:26.860Z,2.40
2022-11-01T10:48:19.685Z,2.30
2022-11-01T10:51:07.942Z,2.15
2022-11-01T10:53:58.181Z,2.15
2022-11-01T10:56:46.679Z,2.28
2022-11-01T10:59:40.181Z,2.40
2022-11-01T11:02:45.950Z,2.83
2022-11-01T11:05:32.742Z,2.38
2022-11-01T11:08:20.808Z,2.70
2022-11-01T11:11:12.213Z,2.50
2022-11-01T11:14:00.099Z,2.53
2022-11-01T11:16:49.999Z,2.50
2022-11-01T11:19:36.449Z,3.05
2022-11-01T11:22:23.041Z,2.75
2022-11-01T11:25:22.173Z,2.88
2022-11-01T11:28:22.389Z,2.42
2022-11-01T11:31:36.957Z,2.50
2022-11-01T11:34:33.320Z,3.17
2022-11-01T11:37:22.085Z,3.22
2022-11-01T11:40:17.309Z,3.13
2022-11-01T11:43:21.469Z,3.17
2022-11-01T11:46:16.671Z,2.65
2022-11-01T11:49:02.325Z,2.63
2022-11-01T11:51:47.350Z,3.00
2022-11-01T11:54:33.589Z,2.95
2022-11-01T11:57:24.581Z,3.13
2022-11-01T12:00:22.231Z,2.80
2022-11-01T12:03:10.583Z,2.85
2022-11-01T12:06:01.759Z,2.83
2022-11-01T12:08:50.215Z,3.00
2022-11-01T12:11:44.758Z,2.92
2022-11-01T12:14:33.234Z,2.50
2022-11-01T12:17:45.148Z,2.92
2022-11-01T12:20:36.630Z,3.08
2022-11-01T12:23:40.061Z,2.63
2022-11-01T12:26:27.239Z,3.08
2022-11-01T12:29:52.095Z,2.80
2022-11-01T12:32:58.064Z,3.20
2022-11-01T12:35:45.038Z,2.90
2022-11-01T12:39:03.537Z,3.13
2022-11-01T12:41:53.877Z,2.17
2022-11-01T12:44:47.955Z,2.65
2022-11-01T12:47:46.525Z,2.85
2022-11-01T12:50:49.940Z,2.97
2022-11-01T12:53:43.199Z,2.83
2022-11-01T12:56:28.418Z,2.60
2022-11-01T12:59:20.754Z,2.55
2022-11-01T13:02:30.853Z,2.95
2022-11-01T13:05:21.416Z,3.00
2022-11-01T13:08:16.361Z,3.28
2022-11-01T13:11:25.046Z,2.97
2022-11-01T13:14:47.559Z,2.92
2022-11-01T13:18:02.052Z,3.13
2022-11-01T13:20:47.078Z,2.60
2022-11-01T13:23:49.044Z,2.30
2022-11-01T13:26:40.757Z,2.75
2022-11-01T13:30:01.484Z,3.10
2022-11-01T13:32:58.381Z,2.85
2022-11-01T13:36:16.263Z,2.95
2022-11-01T13:39:13.487Z,3.08
2022-11-01T13:42:11.650Z,2.75
2022-11-01T13:45:28.898Z,2.53
2022-11-01T13:48:44.454Z,2.88
2022-11-01T13:51:53.979Z,2.80
2022-11-01T13:54:54.318Z,2.17
2022-11-01T13:57:44.866Z,2.47
2022-11-01T14:00:43.208Z,2.63
2022-11-01T14:03:33.147Z,2.40
2022-11-01T14:06:26.955Z,2.38
2022-11-01T14:09:24.513Z,2.50
2022-11-01T14:12:29.050Z,2.28
2022-11-01T14:15:21.718Z,2.45
2022-11-01T14:18:08.152Z,2.70
2022-11-01T14:20:54.484Z,2.55
2022-11-01T14:23:42.619Z,2.10
2022-11-01T14:26:50.444Z,2.50
2022-11-01T14:29:35.398Z,2.80
2022-11-01T14:32:23.901Z,2.53
2022-11-01T14:35:12.140Z,2.33
2022-11-01T14:38:02.247Z,2.60
2022-11-01T14:40:51.688Z,2.65
2022-11-01T14:43:51.394Z,2.50
2022-11-01T14:46:46.623Z,2.38
2022-11-01T14:49:44.092Z,2.40
2022-11-01T14:52:41.392Z,2.00
2022-11-01T14:55:34.829Z,2.45
2022-11-01T14:58:22.856Z,2.28
2022-11-01T15:01:13.517Z,2.88
2022-11-01T15:04:00.320Z,2.30
2022-11-01T15:06:45.403Z,2.38
2022-11-01T15:09:31.857Z,2.63
2022-11-01T15:12:17.131Z,2.53
2022-11-01T15:15:03.297Z,2.35
2022-11-01T15:18:15.946Z,2.42
2022-11-01T15:21:01.206Z,2.25
2022-11-01T15:23:48.504Z,2.30
2022-11-01T15:26:33.955Z,2.92
2022-11-01T15:29:22.804Z,2.50
2022-11-01T15:32:22.384Z,2.40
2022-11-01T15:35:21.945Z,2.15
2022-11-01T15:38:20.791Z,2.17
2022-11-01T15:41:20.601Z,2.65
2022-11-01T15:44:06.415Z,2.08
2022-11-01T15:46:55.288Z,2.63
2022-11-01T15:50:02.860Z,2.10
2022-11-01T15:52:48.311Z,2.20
2022-11-01T15:55:37.711Z,2.22
2022-11-01T15:58:30.120Z,2.58
2022-11-01T16:01:20.185Z,2.88
2022-11-01T16:04:09.939Z,2.30
2022-11-01T16:07:02.604Z,2.25
2022-11-01T16:09:57.710Z,2.40
2022-11-01T16:12:45.363Z,2.50
2022-11-01T16:15:32.556Z,2.60
2022-11-01T16:18:24.115Z,2.08
2022-11-01T16:21:18.420Z,2.78
2022-11-01T16:24:11.649Z,2.50
2022-11-01T16:26:59.460Z,1.98
2022-11-01T16:29:47.599Z,2.30
2022-11-01T16:32:33.076Z,2.47
2022-11-01T16:36:07.986Z,2.22
2022-11-01T16:38:53.767Z,2.50
2022-11-01T16:41:41.025Z,2.55
2022-11-01T16:44:26.672Z,2.67
2022-11-01T16:47:16.258Z,2.55
2022-11-01T16:50:01.224Z,2.75
2022-11-01T16:52:46.942Z,2.92
2022-11-01T16:55:33.579Z,2.55
2022-11-01T16:58:26.384Z,3.35
2022-11-01T17:01:20.942Z,3.08
2022-11-01T17:04:06.364Z,2.90
2022-11-01T17:06:51.512Z,2.08
2022-11-01T17:09:36.385Z,2.40
2022-11-01T17:12:21.314Z,2.75
2022-11-01T17:15:06.913Z,3.08
2022-11-01T17:17:52.292Z,2.97
2022-11-01T17:20:39.194Z,3.10
2022-11-01T17:23:25.705Z,3.03
2022-11-01T17:26:11.826Z,3.30
2022-11-01T17:28:57.001Z,3.40
2022-11-01T17:31:42.165Z,7.88
2022-11-01T17:34:27.554Z,3.10
2022-11-01T17:37:15.961Z,4.60
2022-11-01T17:40:01.566Z,4.28
2022-11-01T17:42:47.021Z,3.75
2022-11-01T17:45:32.200Z,3.40
2022-11-01T17:48:18.757Z,3.70
2022-11-01T17:51:03.841Z,3.45
2022-11-01T17:53:56.476Z,3.22
2022-11-01T17:56:41.608Z,3.25
2022-11-01T17:59:26.983Z,2.97
2022-11-01T18:02:11.865Z,2.22
2022-11-01T18:04:57.165Z,2.63
2022-11-01T18:07:44.535Z,2.97
2022-11-01T18:10:38.438Z,2.63
2022-11-01T18:13:29.835Z,2.95
2022-11-01T18:16:26.672Z,3.00
2022-11-01T18:19:19.237Z,2.38
2022-11-01T18:22:16.930Z,2.22
2022-11-01T18:25:22.257Z,2.97
2022-11-01T18:28:20.526Z,2.47
2022-11-01T18:31:25.625Z,3.15
2022-11-01T18:34:22.740Z,2.58
2022-11-01T18:37:21.442Z,2.42
2022-11-01T18:40:18.605Z,2.53
2022-11-01T18:43:07.957Z,2.38
2022-11-01T18:46:22.756Z,2.50
2022-11-01T18:49:01.050Z,2.20
2022-11-01T18:51:46.274Z,2.63
2022-11-01T18:54:31.409Z,2.78
2022-11-01T18:57:17.824Z,2.67
2022-11-01T19:00:12.450Z,2.85
2022-11-01T19:02:59.650Z,2.88
2022-11-01T19:05:44.835Z,2.72
2022-11-01T19:08:29.805Z,2.63
2022-11-01T19:11:16.155Z,2.95
2022-11-01T19:14:02.902Z,3.20
2022-11-01T19:16:47.941Z,2.90
2022-11-01T19:19:36.443Z,2.22
2022-11-01T19:22:31.838Z,2.83
2022-11-01T19:25:27.949Z,2.70
2022-11-01T19:28:34.931Z,2.70
2022-11-01T19:31:30.820Z,2.80
2022-11-01T19:34:25.448Z,2.30
2022-11-01T19:37:31.823Z,2.50
2022-11-01T19:40:28.203Z,2.35
2022-11-01T19:43:16.042Z,2.50
2022-11-01T19:46:01.372Z,2.55
2022-11-01T19:48:47.649Z,2.90
2022-11-01T19:51:32.693Z,2.45
2022-11-01T19:54:18.168Z,2.65
2022-11-01T19:57:17.441Z,2.63
2022-11-01T20:00:18.875Z,2.90
2022-11-01T20:03:14.195Z,2.55
2022-11-01T20:05:59.731Z,3.08
2022-11-01T20:08:45.074Z,2.80
2022-11-01T20:11:31.728Z,2.80
2022-11-01T20:14:17.008Z,2.65
2022-11-01T20:17:02.776Z,2.58
2022-11-01T20:19:47.675Z,3.22
2022-11-01T20:22:34.128Z,3.00
2022-11-01T20:25:19.523Z,2.33
2022-11-01T20:28:06.073Z,3.10
2022-11-01T20:30:51.849Z,2.72
2022-11-01T20:33:36.947Z,2.75
2022-11-01T20:36:22.068Z,3.00
2022-11-01T20:39:09.219Z,3.20
2022-11-01T20:41:56.729Z,2.70
2022-11-01T20:44:42.132Z,3.22
2022-11-01T20:47:27.428Z,3.28
2022-11-01T20:50:15.011Z,3.97
2022-11-01T20:53:00.057Z,2.97
2022-11-01T20:55:45.624Z,2.95
2022-11-01T20:58:30.981Z,3.33
2022-11-01T21:01:18.067Z,2.50
2022-11-01T21:04:10.675Z,2.90
2022-11-01T21:06:56.138Z,3.90
2022-11-01T21:09:42.945Z,2.80
2022-11-01T21:12:48.211Z,3.50
2022-11-01T21:15:39.569Z,3.00
2022-11-01T21:18:32.622Z,3.13
2022-11-01T21:21:17.745Z,2.78
2022-11-01T21:24:25.700Z,2.83
2022-11-01T21:27:10.922Z,2.92
2022-11-01T21:30:15.111Z,2.80
2022-11-01T21:33:00.254Z,2.70
2022-11-01T21:35:45.559Z,2.80
2022-11-01T21:38:35.505Z,3.20
2022-11-01T21:41:23.286Z,3.03
2022-11-01T21:44:23.592Z,3.15
2022-11-01T21:47:08.511Z,2.90
2022-11-01T21:49:54.053Z,2.75
2022-11-01T21:52:39.397Z,3.70
2022-11-01T21:55:24.251Z,3.00
2022-11-01T21:58:09.807Z,3.15
2022-11-01T22:00:55.365Z,2.92
2022-11-01T22:03:40.524Z,3.22
2022-11-01T22:06:26.043Z,2.95
2022-11-01T22:09:11.552Z,3.00
2022-11-01T22:11:57.181Z,2.95
2022-11-01T22:14:42.270Z,3.03
2022-11-01T22:17:27.632Z,2.70
2022-11-01T22:20:12.581Z,2.40
2022-11-01T22:22:57.545Z,2.80
2022-11-01T22:25:42.614Z,3.38
2022-11-01T22:28:27.416Z,2.95
2022-11-01T22:31:13.209Z,2.95
2022-11-01T22:33:58.413Z,3.20
2022-11-01T22:36:43.785Z,3.15
2022-11-01T22:39:29.785Z,2.97
2022-11-01T22:42:15.981Z,2.55
2022-11-01T22:45:00.859Z,2.65
2022-11-01T22:47:46.565Z,3.08
2022-11-01T22:50:31.489Z,2.90
2022-11-01T22:53:22.396Z,2.97
2022-11-01T22:56:11.328Z,2.67
2022-11-01T22:58:56.717Z,2.90
2022-11-01T23:01:42.876Z,2.97
2022-11-01T23:04:28.083Z,2.78
2022-11-01T23:07:44.745Z,3.00
2022-11-01T23:10:33.736Z,3.10
2022-11-01T23:13:30.114Z,2.78
2022-11-01T23:16:45.015Z,2.60
2022-11-01T23:19:30.330Z,3.13
2022-11-01T23:22:19.707Z,2.83
2022-11-01T23:25:05.898Z,3.28
2022-11-01T23:27:50.990Z,3.00
2022-11-01T23:30:36.414Z,3.38
2022-11-01T23:33:22.253Z,2.60
2022-11-01T23:36:40.321Z,3.08
2022-11-01T23:39:32.900Z,3.00
2022-11-01T23:42:21.087Z,3.10
2022-11-01T23:45:21.860Z,3.03
2022-11-01T23:48:09.070Z,2.85
2022-11-01T23:50:54.065Z,2.78
2022-11-01T23:53:40.527Z,2.80
2022-11-01T23:56:25.861Z,3.33
2022-11-01T23:59:11.040Z,2.80
